< < Back
Terminal Aerodrome Forecast


Current Version              Previous Versions:   1  2  3  4  5  6  7  8  9  

Terminal Aerodrome Forecast

097
FTUS42 KILM 032300
TAFILM
TAF
KILM 032320Z 0400/0424 06005KT 2SM -DZ BR BKN005 OVC015
     FM040400 20006KT 2SM BR VCSH BKN006 BKN100
     FM041500 22013G21KT 6SM BR BKN009
     FM041800 22013G20KT P6SM BKN016=

Latest METAR

804
SAUS70 KWBC 040700 RRF
MTRILM
METAR KILM 040653Z AUTO 00000KT 1/4SM FG VV002 08/08 A3010 RMK AO2
SLP193 T00830078


USA.gov is the U.S. government's official web portal to all federal, state and local government web resources and services.